Kathleen Dupre — WDI3806 — position and weather

sailwx.info

Track history (hours):
 
Tides and Currents Weather Stations Pressure Air Temp Water Temp Dewpoint Dewpoint Depression Visibility Wind Speed Wind Dir Waves Ship Positions

Kathleen Dupre

Owner: Dupre Marine Transportation, LCC, Houma, LA. More information available from US FCC via Universal Licensing System and Coast Guard Vessel Documentation Center.

Last reported at 2018-Jun-18 22:07 UTC. Time now 2018-Jun-25 19:38 UTC.
Position N 30°02' W 090°36'.

Length 14 m; draft 3 m.

Type: . MMSI: 367692120.

Date/timePositionNaut miles runAvg speedWind from/ knotsBaromVisibWave heightAir tempDewpointWater temp
2018-Jun-18 22:07N 30°02' W 090°36'1 8.5
2018-Jun-18 22:00N 30°02' W 090°37'4 7.7
2018-Jun-18 21:30N 30°02' W 090°42'  
2018-Jun-09 01:55N 29°33' W 090°26'2 5.0
2018-Jun-09 01:30N 29°34' W 090°28'2 4.8
2018-Jun-09 01:00N 29°34' W 090°31'2 4.7
2018-Jun-09 00:30N 29°34' W 090°34'2 4.7
2018-Jun-09 00:00N 29°35' W 090°36'2 4.5
2018-Jun-08 23:30N 29°36' W 090°39'2 3.2
2018-Jun-08 22:59N 29°36' W 090°41'0 0.0
2018-Jun-08 22:29N 29°36' W 090°41'  
Track history (hours):
 
Tides and Currents Weather Stations Pressure Air Temp Water Temp Dewpoint Dewpoint Depression Visibility Wind Speed Wind Dir Waves Ship Positions

Kathleen Dupre

Owner: Dupre Marine Transportation, LCC, Houma, LA. More information available from US FCC via Universal Licensing System and Coast Guard Vessel Documentation Center.

Last reported at 2018-Jun-18 22:07 UTC. Time now 2018-Jun-25 19:38 UTC.
Position N 30°02' W 090°36'.

Length 14 m; draft 3 m.

Type: . MMSI: 367692120.

Date/timePositionNaut miles runAvg speedWind from/ knotsBaromVisibWave heightAir tempDewpointWater temp
2018-Jun-18 22:07N 30°02' W 090°36'1 8.5
2018-Jun-18 22:00N 30°02' W 090°37'4 7.7
2018-Jun-18 21:30N 30°02' W 090°42'  
2018-Jun-09 01:55N 29°33' W 090°26'2 5.0
2018-Jun-09 01:30N 29°34' W 090°28'2 4.8
2018-Jun-09 01:00N 29°34' W 090°31'2 4.7
2018-Jun-09 00:30N 29°34' W 090°34'2 4.7
2018-Jun-09 00:00N 29°35' W 090°36'2 4.5
2018-Jun-08 23:30N 29°36' W 090°39'2 3.2
2018-Jun-08 22:59N 29°36' W 090°41'0 0.0
2018-Jun-08 22:29N 29°36' W 090°41'  

Dump ship's entire track history